AXB129P VIDP-VASU
Flight info
| Callsign | AXB129P |
|---|---|
| Flight time | 1h 27m |
| Altitude | 34000 |
| Route | DUDUM6E DUDUM Q2 SG W161 SUR |
| Aircraft | B38M/M-SDE1FGHILORVWXY/HB1 |
Departure
| Time | 2026-05-04 12:43 |
|---|---|
| Airport | Indira Gandhi International Airport (VIDP) |
Arrival
| Time | 2026-05-04 14:11 |
|---|---|
| Airport | Surat International Airport (VASU) |
| Time | Latitude | Longitude | Altitude | Speed | Heading |
|---|---|---|---|---|---|
| 2026-05-04 12:15 | 28.56614 | 77.10953 | 776 ft | 0 kts | 58° |
| 2026-05-04 12:32 | 28.56614 | 77.10952 | 776 ft | 1 kts | 58° |
| 2026-05-04 12:33 | 28.56600 | 77.10933 | 776 ft | 4 kts | 29° |
| 2026-05-04 12:33 | 28.56577 | 77.10930 | 776 ft | 4 kts | 335° |
| 2026-05-04 12:33 | 28.56569 | 77.10935 | 776 ft | 0 kts | 327° |
| 2026-05-04 12:37 | 28.56584 | 77.10924 | 776 ft | 8 kts | 328° |
| 2026-05-04 12:37 | 28.56669 | 77.10867 | 776 ft | 20 kts | 328° |
| 2026-05-04 12:38 | 28.56778 | 77.10778 | 776 ft | 16 kts | 306° |
| 2026-05-04 12:38 | 28.56786 | 77.10651 | 776 ft | 17 kts | 272° |
| 2026-05-04 12:38 | 28.56791 | 77.10510 | 776 ft | 19 kts | 272° |
| 2026-05-04 12:38 | 28.56794 | 77.10353 | 775 ft | 21 kts | 270° |
| 2026-05-04 12:39 | 28.56796 | 77.10185 | 776 ft | 22 kts | 271° |
| 2026-05-04 12:39 | 28.56802 | 77.10005 | 776 ft | 23 kts | 272° |
| 2026-05-04 12:39 | 28.56806 | 77.09813 | 776 ft | 25 kts | 272° |
| 2026-05-04 12:39 | 28.56812 | 77.09615 | 776 ft | 26 kts | 271° |
| 2026-05-04 12:40 | 28.56816 | 77.09426 | 776 ft | 21 kts | 272° |
| 2026-05-04 12:40 | 28.56821 | 77.09256 | 776 ft | 22 kts | 274° |
| 2026-05-04 12:40 | 28.56824 | 77.09093 | 776 ft | 19 kts | 274° |
| 2026-05-04 12:40 | 28.56881 | 77.08991 | 775 ft | 16 kts | 350° |
| 2026-05-04 12:41 | 28.56983 | 77.08971 | 776 ft | 13 kts | 349° |
| 2026-05-04 12:41 | 28.57059 | 77.08915 | 776 ft | 14 kts | 303° |
| 2026-05-04 12:41 | 28.57076 | 77.08832 | 775 ft | 6 kts | 233° |
| 2026-05-04 12:41 | 28.57058 | 77.08826 | 775 ft | 2 kts | 168° |
| 2026-05-04 12:42 | 28.57050 | 77.08839 | 775 ft | 2 kts | 101° |
| 2026-05-04 12:42 | 28.57050 | 77.08859 | 776 ft | 4 kts | 89° |
| 2026-05-04 12:42 | 28.57049 | 77.08954 | 776 ft | 35 kts | 91° |
| 2026-05-04 12:42 | 28.57037 | 77.09491 | 777 ft | 99 kts | 91° |
| 2026-05-04 12:43 | 28.57016 | 77.10482 | 776 ft | 149 kts | 92° |
| 2026-05-04 12:43 | 28.56980 | 77.11789 | 1002 ft | 174 kts | 91° |
| 2026-05-04 12:43 | 28.56964 | 77.13186 | 1664 ft | 174 kts | 92° |
| 2026-05-04 12:43 | 28.56919 | 77.14512 | 2450 ft | 166 kts | 93° |
| 2026-05-04 12:44 | 28.56876 | 77.15907 | 2691 ft | 190 kts | 92° |
| 2026-05-04 12:44 | 28.56832 | 77.17495 | 3016 ft | 212 kts | 92° |
| 2026-05-04 12:44 | 28.56788 | 77.19256 | 3411 ft | 230 kts | 91° |
| 2026-05-04 12:44 | 28.56744 | 77.21129 | 3900 ft | 245 kts | 91° |
| 2026-05-04 12:45 | 28.56700 | 77.23124 | 4441 ft | 257 kts | 91° |
| 2026-05-04 12:45 | 28.56655 | 77.25178 | 5149 ft | 261 kts | 91° |
| 2026-05-04 12:45 | 28.56610 | 77.27275 | 5806 ft | 270 kts | 91° |
| 2026-05-04 12:45 | 28.56476 | 77.29419 | 6372 ft | 279 kts | 102° |
| 2026-05-04 12:46 | 28.55670 | 77.31425 | 6992 ft | 284 kts | 130° |
| 2026-05-04 12:46 | 28.54097 | 77.32792 | 7574 ft | 290 kts | 158° |
| 2026-05-04 12:46 | 28.52119 | 77.33217 | 8187 ft | 292 kts | 186° |
| 2026-05-04 12:46 | 28.50175 | 77.32658 | 8856 ft | 293 kts | 200° |
| 2026-05-04 12:47 | 28.48164 | 77.32114 | 9498 ft | 299 kts | 194° |
| 2026-05-04 12:47 | 28.46812 | 77.31792 | 9694 ft | 301 kts | 194° |
| 2026-05-04 12:47 | 28.44761 | 77.31293 | 9801 ft | 301 kts | 195° |
| 2026-05-04 12:47 | 28.42706 | 77.30786 | 9807 ft | 300 kts | 195° |
| 2026-05-04 12:48 | 28.40664 | 77.30279 | 9983 ft | 300 kts | 195° |
| 2026-05-04 12:48 | 28.37959 | 77.29600 | 10895 ft | 303 kts | 195° |
| 2026-05-04 12:48 | 28.36587 | 77.29256 | 11380 ft | 304 kts | 195° |
| 2026-05-04 12:48 | 28.34547 | 77.28553 | 11875 ft | 312 kts | 211° |
| 2026-05-04 12:49 | 28.32849 | 77.26981 | 12213 ft | 321 kts | 233° |
| 2026-05-04 12:49 | 28.31427 | 77.24958 | 12619 ft | 334 kts | 233° |
| 2026-05-04 12:49 | 28.29962 | 77.22898 | 13386 ft | 335 kts | 233° |
| 2026-05-04 12:49 | 28.28498 | 77.20824 | 14069 ft | 338 kts | 233° |
| 2026-05-04 12:50 | 28.27026 | 77.18729 | 14752 ft | 341 kts | 233° |
| 2026-05-04 12:50 | 28.25539 | 77.16613 | 15415 ft | 344 kts | 233° |
| 2026-05-04 12:50 | 28.24052 | 77.14496 | 16059 ft | 348 kts | 233° |
| 2026-05-04 12:50 | 28.22537 | 77.12338 | 16720 ft | 351 kts | 233° |
| 2026-05-04 12:51 | 28.21004 | 77.10157 | 17360 ft | 354 kts | 233° |
| 2026-05-04 12:51 | 28.19461 | 77.07961 | 17992 ft | 357 kts | 233° |
| 2026-05-04 12:51 | 28.17900 | 77.05742 | 18539 ft | 360 kts | 233° |
| 2026-05-04 12:51 | 28.16333 | 77.03515 | 19123 ft | 362 kts | 233° |
| 2026-05-04 12:52 | 28.14755 | 77.01273 | 19703 ft | 363 kts | 234° |
| 2026-05-04 12:52 | 28.13194 | 76.99058 | 20260 ft | 365 kts | 234° |
| 2026-05-04 12:52 | 28.11602 | 76.96799 | 20821 ft | 367 kts | 234° |
| 2026-05-04 12:52 | 28.10003 | 76.94532 | 21395 ft | 368 kts | 234° |
| 2026-05-04 12:53 | 28.08397 | 76.92257 | 21949 ft | 370 kts | 234° |
| 2026-05-04 12:53 | 28.06785 | 76.89973 | 22484 ft | 372 kts | 235° |
| 2026-05-04 12:53 | 28.05182 | 76.87703 | 23028 ft | 374 kts | 235° |
| 2026-05-04 12:53 | 28.03550 | 76.85393 | 23524 ft | 376 kts | 235° |
| 2026-05-04 12:54 | 28.01904 | 76.83067 | 23949 ft | 379 kts | 235° |
| 2026-05-04 12:54 | 28.00244 | 76.80721 | 24371 ft | 382 kts | 235° |
| 2026-05-04 12:54 | 27.98596 | 76.78392 | 24780 ft | 384 kts | 235° |
| 2026-05-04 12:54 | 27.96910 | 76.76012 | 25183 ft | 387 kts | 235° |
| 2026-05-04 12:55 | 27.95212 | 76.73617 | 25578 ft | 390 kts | 235° |
| 2026-05-04 12:55 | 27.93508 | 76.71213 | 25960 ft | 393 kts | 235° |
| 2026-05-04 12:55 | 27.91789 | 76.68791 | 26338 ft | 396 kts | 235° |
| 2026-05-04 12:55 | 27.90058 | 76.66351 | 26710 ft | 399 kts | 235° |
| 2026-05-04 12:56 | 27.88310 | 76.63944 | 27059 ft | 403 kts | 231° |
| 2026-05-04 12:56 | 27.86154 | 76.61862 | 27440 ft | 413 kts | 217° |
| 2026-05-04 12:56 | 27.83538 | 76.60427 | 27831 ft | 421 kts | 206° |
| 2026-05-04 12:56 | 27.80834 | 76.59119 | 28161 ft | 423 kts | 209° |
| 2026-05-04 12:57 | 27.78144 | 76.57743 | 28497 ft | 425 kts | 209° |
| 2026-05-04 12:57 | 27.75448 | 76.56349 | 28863 ft | 428 kts | 209° |
| 2026-05-04 12:57 | 27.72738 | 76.54940 | 29194 ft | 430 kts | 209° |
| 2026-05-04 12:57 | 27.70008 | 76.53518 | 29543 ft | 432 kts | 209° |
| 2026-05-04 12:58 | 27.67296 | 76.52105 | 29874 ft | 435 kts | 210° |
| 2026-05-04 12:58 | 27.64546 | 76.50674 | 30181 ft | 436 kts | 209° |
| 2026-05-04 12:58 | 27.61786 | 76.49239 | 30492 ft | 438 kts | 209° |
| 2026-05-04 12:58 | 27.59013 | 76.47796 | 30805 ft | 439 kts | 209° |
| 2026-05-04 12:59 | 27.56226 | 76.46348 | 31125 ft | 440 kts | 209° |
| 2026-05-04 12:59 | 27.53435 | 76.44898 | 31441 ft | 441 kts | 209° |
| 2026-05-04 12:59 | 27.50673 | 76.43464 | 31767 ft | 442 kts | 209° |
| 2026-05-04 12:59 | 27.47875 | 76.42013 | 32091 ft | 443 kts | 209° |
| 2026-05-04 13:00 | 27.45071 | 76.40560 | 32363 ft | 444 kts | 209° |
| 2026-05-04 13:00 | 27.42263 | 76.39104 | 32713 ft | 443 kts | 209° |
| 2026-05-04 13:00 | 27.39496 | 76.37672 | 33176 ft | 440 kts | 209° |
| 2026-05-04 13:00 | 27.36720 | 76.36238 | 33656 ft | 436 kts | 208° |
| 2026-05-04 13:01 | 27.33971 | 76.34817 | 34096 ft | 433 kts | 208° |
| 2026-05-04 13:01 | 27.31236 | 76.33403 | 34466 ft | 431 kts | 209° |
| 2026-05-04 13:01 | 27.28517 | 76.31999 | 34822 ft | 429 kts | 209° |
| 2026-05-04 13:01 | 27.25832 | 76.30613 | 35173 ft | 427 kts | 209° |
| 2026-05-04 13:02 | 27.23124 | 76.29217 | 35499 ft | 426 kts | 209° |
| 2026-05-04 13:02 | 27.20431 | 76.27828 | 35811 ft | 424 kts | 209° |
| 2026-05-04 13:02 | 27.17751 | 76.26448 | 36110 ft | 423 kts | 209° |
| 2026-05-04 13:02 | 27.15069 | 76.25067 | 36385 ft | 422 kts | 209° |
| 2026-05-04 13:03 | 27.12428 | 76.23707 | 36650 ft | 422 kts | 209° |
| 2026-05-04 13:03 | 27.09754 | 76.22330 | 36906 ft | 421 kts | 209° |
| 2026-05-04 13:03 | 27.07088 | 76.20959 | 37151 ft | 420 kts | 209° |
| 2026-05-04 13:03 | 27.04426 | 76.19590 | 37396 ft | 420 kts | 209° |
| 2026-05-04 13:04 | 27.01778 | 76.18229 | 37619 ft | 419 kts | 209° |
| 2026-05-04 13:04 | 26.99115 | 76.16861 | 37767 ft | 420 kts | 209° |
| 2026-05-04 13:04 | 26.96490 | 76.15514 | 37782 ft | 419 kts | 210° |
| 2026-05-04 13:05 | 26.91187 | 76.12793 | 37770 ft | 419 kts | 210° |
| 2026-05-04 13:05 | 26.85872 | 76.10069 | 37763 ft | 419 kts | 209° |
| 2026-05-04 13:06 | 26.80588 | 76.07364 | 37766 ft | 420 kts | 209° |
| 2026-05-04 13:06 | 26.75254 | 76.04636 | 37769 ft | 421 kts | 209° |
| 2026-05-04 13:07 | 26.69945 | 76.01923 | 37763 ft | 422 kts | 209° |
| 2026-05-04 13:07 | 26.64587 | 75.99189 | 37765 ft | 423 kts | 209° |
| 2026-05-04 13:08 | 26.59221 | 75.96452 | 37772 ft | 425 kts | 209° |
| 2026-05-04 13:08 | 26.53817 | 75.93700 | 37777 ft | 426 kts | 209° |
| 2026-05-04 13:09 | 26.48436 | 75.90962 | 37781 ft | 428 kts | 209° |
| 2026-05-04 13:09 | 26.43003 | 75.88200 | 37779 ft | 429 kts | 209° |
| 2026-05-04 13:10 | 26.37595 | 75.85455 | 37781 ft | 429 kts | 209° |
| 2026-05-04 13:10 | 26.32151 | 75.82693 | 37778 ft | 430 kts | 210° |
| 2026-05-04 13:11 | 26.26680 | 75.79921 | 37774 ft | 431 kts | 210° |
| 2026-05-04 13:11 | 26.21218 | 75.77156 | 37778 ft | 431 kts | 210° |
| 2026-05-04 13:12 | 26.15787 | 75.74410 | 37776 ft | 432 kts | 210° |
| 2026-05-04 13:12 | 26.10294 | 75.71635 | 37766 ft | 433 kts | 210° |
| 2026-05-04 13:13 | 26.04799 | 75.68863 | 37774 ft | 434 kts | 210° |
| 2026-05-04 13:13 | 25.99291 | 75.66086 | 37774 ft | 434 kts | 210° |
| 2026-05-04 13:14 | 25.93793 | 75.63317 | 37762 ft | 435 kts | 210° |
| 2026-05-04 13:14 | 25.88266 | 75.60537 | 37766 ft | 435 kts | 210° |
| 2026-05-04 13:15 | 25.82774 | 75.57777 | 37764 ft | 436 kts | 210° |
| 2026-05-04 13:15 | 25.77243 | 75.55000 | 37758 ft | 436 kts | 210° |
| 2026-05-04 13:16 | 25.71708 | 75.52225 | 37775 ft | 436 kts | 211° |
| 2026-05-04 13:16 | 25.66164 | 75.49447 | 37771 ft | 437 kts | 211° |
| 2026-05-04 13:17 | 25.60650 | 75.46688 | 37770 ft | 437 kts | 211° |
| 2026-05-04 13:17 | 25.55129 | 75.43928 | 37769 ft | 436 kts | 211° |
| 2026-05-04 13:18 | 25.49573 | 75.41153 | 37773 ft | 436 kts | 211° |
| 2026-05-04 13:18 | 25.44058 | 75.38401 | 37777 ft | 436 kts | 211° |
| 2026-05-04 13:19 | 25.38508 | 75.35634 | 37773 ft | 436 kts | 211° |
| 2026-05-04 13:19 | 25.32962 | 75.32873 | 37777 ft | 436 kts | 211° |
| 2026-05-04 13:20 | 25.27423 | 75.30118 | 37775 ft | 436 kts | 210° |
| 2026-05-04 13:20 | 25.21903 | 75.27375 | 37780 ft | 436 kts | 210° |
| 2026-05-04 13:21 | 25.16382 | 75.24634 | 37774 ft | 436 kts | 210° |
| 2026-05-04 13:21 | 25.10820 | 75.21875 | 37771 ft | 436 kts | 210° |
| 2026-05-04 13:22 | 25.05312 | 75.19146 | 37773 ft | 436 kts | 210° |
| 2026-05-04 13:22 | 24.99759 | 75.16398 | 37769 ft | 437 kts | 210° |
| 2026-05-04 13:23 | 24.94238 | 75.13668 | 37765 ft | 437 kts | 210° |
| 2026-05-04 13:23 | 24.88682 | 75.10923 | 37768 ft | 437 kts | 210° |
| 2026-05-04 13:24 | 24.83118 | 75.08178 | 37761 ft | 438 kts | 210° |
| 2026-05-04 13:24 | 24.77573 | 75.05444 | 37759 ft | 438 kts | 210° |
| 2026-05-04 13:25 | 24.69208 | 75.01325 | 37751 ft | 438 kts | 210° |
| 2026-05-04 13:25 | 24.63656 | 74.98595 | 37747 ft | 439 kts | 210° |
| 2026-05-04 13:26 | 24.58068 | 74.95849 | 37744 ft | 439 kts | 210° |
| 2026-05-04 13:26 | 24.52471 | 74.93102 | 37742 ft | 440 kts | 210° |
| 2026-05-04 13:27 | 24.46920 | 74.90380 | 37740 ft | 439 kts | 210° |
| 2026-05-04 13:27 | 24.41322 | 74.87637 | 37741 ft | 439 kts | 210° |
| 2026-05-04 13:28 | 24.35736 | 74.84904 | 37735 ft | 439 kts | 210° |
| 2026-05-04 13:28 | 24.30177 | 74.82186 | 37737 ft | 439 kts | 210° |
| 2026-05-04 13:29 | 24.24583 | 74.79453 | 37741 ft | 439 kts | 210° |
| 2026-05-04 13:29 | 24.18986 | 74.76722 | 37739 ft | 439 kts | 210° |
| 2026-05-04 13:30 | 24.13431 | 74.74014 | 37740 ft | 439 kts | 210° |
| 2026-05-04 13:30 | 24.07842 | 74.71292 | 37741 ft | 439 kts | 210° |
| 2026-05-04 13:31 | 24.02233 | 74.68628 | 37738 ft | 442 kts | 205° |
| 2026-05-04 13:31 | 23.96437 | 74.66358 | 37733 ft | 442 kts | 206° |
| 2026-05-04 13:32 | 23.90687 | 74.64054 | 37742 ft | 442 kts | 206° |
| 2026-05-04 13:32 | 23.84913 | 74.61735 | 37734 ft | 441 kts | 206° |
| 2026-05-04 13:33 | 23.79145 | 74.59420 | 37730 ft | 442 kts | 206° |
| 2026-05-04 13:33 | 23.74336 | 74.57491 | 37738 ft | 442 kts | 206° |
| 2026-05-04 13:34 | 23.68581 | 74.55185 | 37719 ft | 442 kts | 206° |
| 2026-05-04 13:34 | 23.62787 | 74.52865 | 37724 ft | 443 kts | 206° |
| 2026-05-04 13:35 | 23.54126 | 74.49402 | 37719 ft | 443 kts | 206° |
| 2026-05-04 13:36 | 23.48334 | 74.47088 | 37717 ft | 443 kts | 206° |
| 2026-05-04 13:36 | 23.42533 | 74.44774 | 37711 ft | 443 kts | 206° |
| 2026-05-04 13:37 | 23.36739 | 74.42463 | 37719 ft | 444 kts | 206° |
| 2026-05-04 13:37 | 23.30932 | 74.40150 | 37718 ft | 444 kts | 206° |
| 2026-05-04 13:38 | 23.25151 | 74.37851 | 37712 ft | 445 kts | 206° |
| 2026-05-04 13:38 | 23.19327 | 74.35535 | 37718 ft | 445 kts | 206° |
| 2026-05-04 13:39 | 23.13491 | 74.33223 | 37714 ft | 446 kts | 206° |
| 2026-05-04 13:39 | 23.07698 | 74.30933 | 37716 ft | 446 kts | 206° |
| 2026-05-04 13:40 | 23.01854 | 74.28625 | 37719 ft | 446 kts | 206° |
| 2026-05-04 13:40 | 22.96017 | 74.26322 | 37725 ft | 446 kts | 206° |
| 2026-05-04 13:41 | 22.90175 | 74.24019 | 37723 ft | 446 kts | 206° |
| 2026-05-04 13:41 | 22.84337 | 74.21720 | 37726 ft | 446 kts | 206° |
| 2026-05-04 13:42 | 22.75587 | 74.18278 | 37725 ft | 447 kts | 206° |
| 2026-05-04 13:42 | 22.69768 | 74.15991 | 37723 ft | 447 kts | 205° |
| 2026-05-04 13:43 | 22.63914 | 74.13693 | 37724 ft | 447 kts | 205° |
| 2026-05-04 13:43 | 22.58068 | 74.11400 | 37720 ft | 447 kts | 205° |
| 2026-05-04 13:44 | 22.52209 | 74.09104 | 37726 ft | 447 kts | 205° |
| 2026-05-04 13:44 | 22.46355 | 74.06812 | 37723 ft | 447 kts | 205° |
| 2026-05-04 13:45 | 22.40531 | 74.04534 | 37724 ft | 447 kts | 205° |
| 2026-05-04 13:45 | 22.34675 | 74.02245 | 37649 ft | 447 kts | 205° |
| 2026-05-04 13:46 | 22.31751 | 74.01103 | 36794 ft | 450 kts | 205° |
| 2026-05-04 13:46 | 22.28777 | 73.99943 | 35797 ft | 456 kts | 205° |
| 2026-05-04 13:46 | 22.25796 | 73.98780 | 34861 ft | 455 kts | 205° |
| 2026-05-04 13:46 | 22.22823 | 73.97620 | 33994 ft | 452 kts | 205° |
| 2026-05-04 13:47 | 22.19868 | 73.96468 | 33071 ft | 450 kts | 205° |
| 2026-05-04 13:47 | 22.16926 | 73.95322 | 32162 ft | 448 kts | 205° |
| 2026-05-04 13:47 | 22.14034 | 73.94195 | 31287 ft | 446 kts | 205° |
| 2026-05-04 13:47 | 22.11111 | 73.93057 | 30439 ft | 444 kts | 205° |
| 2026-05-04 13:48 | 22.08209 | 73.91927 | 29601 ft | 442 kts | 205° |
| 2026-05-04 13:48 | 22.05321 | 73.90805 | 28652 ft | 440 kts | 204° |
| 2026-05-04 13:48 | 22.02440 | 73.89685 | 27750 ft | 437 kts | 204° |
| 2026-05-04 13:48 | 21.99621 | 73.88589 | 26904 ft | 433 kts | 204° |
| 2026-05-04 13:49 | 21.96791 | 73.87490 | 26088 ft | 429 kts | 204° |
| 2026-05-04 13:49 | 21.93993 | 73.86404 | 25304 ft | 425 kts | 203° |
| 2026-05-04 13:49 | 21.91228 | 73.85330 | 24553 ft | 420 kts | 203° |
| 2026-05-04 13:49 | 21.88501 | 73.84272 | 23843 ft | 415 kts | 203° |
| 2026-05-04 13:50 | 21.85803 | 73.83225 | 23164 ft | 408 kts | 202° |
| 2026-05-04 13:50 | 21.83168 | 73.82204 | 22634 ft | 396 kts | 202° |
| 2026-05-04 13:50 | 21.80617 | 73.81215 | 22231 ft | 382 kts | 202° |
| 2026-05-04 13:50 | 21.78155 | 73.80261 | 21852 ft | 369 kts | 202° |
| 2026-05-04 13:51 | 21.75757 | 73.79332 | 21481 ft | 364 kts | 202° |
| 2026-05-04 13:51 | 21.73413 | 73.78424 | 21103 ft | 362 kts | 202° |
| 2026-05-04 13:51 | 21.71049 | 73.77509 | 20744 ft | 359 kts | 202° |
| 2026-05-04 13:51 | 21.68701 | 73.76602 | 20366 ft | 357 kts | 202° |
| 2026-05-04 13:52 | 21.64043 | 73.74800 | 19642 ft | 354 kts | 202° |
| 2026-05-04 13:52 | 21.61730 | 73.73906 | 19278 ft | 352 kts | 202° |
| 2026-05-04 13:52 | 21.59433 | 73.73019 | 18920 ft | 350 kts | 202° |
| 2026-05-04 13:53 | 21.57137 | 73.72132 | 18562 ft | 349 kts | 202° |
| 2026-05-04 13:53 | 21.54887 | 73.71264 | 18213 ft | 348 kts | 202° |
| 2026-05-04 13:53 | 21.52614 | 73.70387 | 17825 ft | 346 kts | 202° |
| 2026-05-04 13:54 | 21.48105 | 73.68647 | 17077 ft | 342 kts | 202° |
| 2026-05-04 13:54 | 21.45866 | 73.67784 | 16723 ft | 340 kts | 202° |
| 2026-05-04 13:54 | 21.41437 | 73.66077 | 16030 ft | 335 kts | 202° |
| 2026-05-04 13:55 | 21.39249 | 73.65234 | 15687 ft | 333 kts | 202° |
| 2026-05-04 13:55 | 21.34941 | 73.63567 | 15012 ft | 329 kts | 205° |
| 2026-05-04 13:55 | 21.33067 | 73.62214 | 14671 ft | 318 kts | 232° |
| 2026-05-04 13:56 | 21.32089 | 73.60183 | 14366 ft | 309 kts | 260° |
| 2026-05-04 13:56 | 21.31973 | 73.57893 | 14147 ft | 301 kts | 272° |
| 2026-05-04 13:56 | 21.32105 | 73.53470 | 13661 ft | 301 kts | 272° |
| 2026-05-04 13:57 | 21.32175 | 73.51215 | 13299 ft | 303 kts | 272° |
| 2026-05-04 13:57 | 21.32246 | 73.48949 | 12852 ft | 305 kts | 272° |
| 2026-05-04 13:58 | 21.32448 | 73.42094 | 11585 ft | 308 kts | 272° |
| 2026-05-04 13:58 | 21.32573 | 73.37513 | 10757 ft | 304 kts | 272° |
| 2026-05-04 13:58 | 21.32631 | 73.35293 | 10353 ft | 300 kts | 272° |
| 2026-05-04 13:59 | 21.32687 | 73.33075 | 9950 ft | 295 kts | 272° |
| 2026-05-04 13:59 | 21.32741 | 73.30895 | 9538 ft | 291 kts | 272° |
| 2026-05-04 13:59 | 21.32833 | 73.26597 | 8659 ft | 284 kts | 272° |
| 2026-05-04 14:00 | 21.32867 | 73.24495 | 8233 ft | 281 kts | 272° |
| 2026-05-04 14:00 | 21.32915 | 73.20388 | 7527 ft | 269 kts | 272° |
| 2026-05-04 14:00 | 21.32928 | 73.18395 | 7182 ft | 264 kts | 272° |
| 2026-05-04 14:01 | 21.32935 | 73.16441 | 6844 ft | 260 kts | 272° |
| 2026-05-04 14:01 | 21.32935 | 73.14524 | 6546 ft | 254 kts | 272° |
| 2026-05-04 14:01 | 21.32918 | 73.10853 | 6000 ft | 241 kts | 272° |
| 2026-05-04 14:02 | 21.32896 | 73.09080 | 5723 ft | 234 kts | 272° |
| 2026-05-04 14:02 | 21.32882 | 73.07349 | 5453 ft | 229 kts | 272° |
| 2026-05-04 14:02 | 21.32873 | 73.05658 | 5182 ft | 224 kts | 272° |
| 2026-05-04 14:02 | 21.32866 | 73.04025 | 4922 ft | 219 kts | 272° |
| 2026-05-04 14:03 | 21.32863 | 73.02395 | 4683 ft | 218 kts | 272° |
| 2026-05-04 14:03 | 21.32865 | 73.00776 | 4431 ft | 216 kts | 272° |
| 2026-05-04 14:03 | 21.32886 | 72.99170 | 4216 ft | 214 kts | 272° |
| 2026-05-04 14:03 | 21.32913 | 72.97588 | 3990 ft | 211 kts | 272° |
| 2026-05-04 14:04 | 21.31898 | 72.94773 | 3530 ft | 208 kts | 230° |
| 2026-05-04 14:04 | 21.30893 | 72.93669 | 3310 ft | 206 kts | 226° |
| 2026-05-04 14:04 | 21.29870 | 72.92616 | 3168 ft | 199 kts | 225° |
| 2026-05-04 14:05 | 21.27976 | 72.90707 | 3122 ft | 180 kts | 225° |
| 2026-05-04 14:05 | 21.27077 | 72.89805 | 3115 ft | 178 kts | 225° |
| 2026-05-04 14:05 | 21.26176 | 72.88904 | 3098 ft | 177 kts | 225° |
| 2026-05-04 14:06 | 21.25277 | 72.88004 | 3082 ft | 178 kts | 225° |
| 2026-05-04 14:06 | 21.24373 | 72.87100 | 3059 ft | 176 kts | 225° |
| 2026-05-04 14:06 | 21.23491 | 72.86219 | 2858 ft | 170 kts | 225° |
| 2026-05-04 14:06 | 21.22637 | 72.85368 | 2657 ft | 165 kts | 224° |
| 2026-05-04 14:07 | 21.21815 | 72.84547 | 2467 ft | 159 kts | 224° |
| 2026-05-04 14:07 | 21.21011 | 72.83743 | 2286 ft | 156 kts | 223° |
| 2026-05-04 14:07 | 21.20228 | 72.82961 | 2080 ft | 152 kts | 223° |
| 2026-05-04 14:07 | 21.19460 | 72.82195 | 1904 ft | 150 kts | 222° |
| 2026-05-04 14:08 | 21.18693 | 72.81430 | 1705 ft | 151 kts | 222° |
| 2026-05-04 14:08 | 21.17958 | 72.80695 | 1530 ft | 135 kts | 222° |
| 2026-05-04 14:08 | 21.17287 | 72.80026 | 1391 ft | 130 kts | 221° |
| 2026-05-04 14:08 | 21.16620 | 72.79359 | 1226 ft | 130 kts | 221° |
| 2026-05-04 14:09 | 21.15314 | 72.78055 | 860 ft | 129 kts | 221° |
| 2026-05-04 14:09 | 21.14646 | 72.77397 | 708 ft | 131 kts | 221° |
| 2026-05-04 14:10 | 21.13308 | 72.76075 | 275 ft | 132 kts | 225° |
| 2026-05-04 14:10 | 21.12642 | 72.75389 | 133 ft | 132 kts | 224° |
| 2026-05-04 14:10 | 21.11967 | 72.74731 | 46 ft | 130 kts | 223° |
| 2026-05-04 14:10 | 21.11379 | 72.74144 | 24 ft | 88 kts | 224° |
| 2026-05-04 14:11 | 21.11098 | 72.73860 | 21 ft | 32 kts | 222° |
| 2026-05-04 14:11 | 21.10752 | 72.73515 | 21 ft | 30 kts | 222° |
| 2026-05-04 14:11 | 21.10656 | 72.73394 | 22 ft | 14 kts | 279° |
| 2026-05-04 14:12 | 21.10712 | 72.73326 | 20 ft | 11 kts | 321° |
| 2026-05-04 14:12 | 21.10768 | 72.73313 | 19 ft | 7 kts | 30° |
| 2026-05-04 14:12 | 21.10885 | 72.73412 | 19 ft | 18 kts | 40° |
| 2026-05-04 14:13 | 21.10974 | 72.73501 | 19 ft | 16 kts | 46° |
| 2026-05-04 14:13 | 21.11044 | 72.73580 | 19 ft | 13 kts | 41° |
| 2026-05-04 14:13 | 21.11112 | 72.73646 | 19 ft | 15 kts | 42° |
| 2026-05-04 14:13 | 21.11203 | 72.73735 | 19 ft | 21 kts | 42° |
| 2026-05-04 14:14 | 21.11328 | 72.73857 | 19 ft | 27 kts | 42° |
| 2026-05-04 14:14 | 21.11639 | 72.74183 | 19 ft | 29 kts | 43° |
| 2026-05-04 14:14 | 21.11787 | 72.74323 | 21 ft | 25 kts | 41° |
| 2026-05-04 14:15 | 21.11931 | 72.74419 | 19 ft | 5 kts | 313° |
| 2026-05-04 14:15 | 21.12003 | 72.74338 | 19 ft | 0 kts | 315° |